createdAt,value
2023-05-08T00:00:56.880Z,100.00
2023-05-08T00:04:09.872Z,100.00
2023-05-08T00:07:22.488Z,100.00
2023-05-08T00:10:35.921Z,100.00
2023-05-08T00:13:48.056Z,100.00
2023-05-08T00:17:00.300Z,100.00
2023-05-08T00:20:15.696Z,100.00
2023-05-08T00:23:28.021Z,100.00
2023-05-08T00:26:42.571Z,100.00
2023-05-08T00:29:56.767Z,100.00
2023-05-08T00:33:09.533Z,100.00
2023-05-08T00:36:22.071Z,100.00
2023-05-08T00:39:34.997Z,100.00
2023-05-08T00:42:47.327Z,100.00
2023-05-08T00:46:00.614Z,100.00
2023-05-08T00:49:14.884Z,100.00
2023-05-08T00:52:27.840Z,100.00
2023-05-08T00:55:41.084Z,100.00
2023-05-08T00:58:54.898Z,100.00
2023-05-08T01:02:08.336Z,100.00
2023-05-08T01:05:21.326Z,100.00
2023-05-08T01:08:34.122Z,100.00
2023-05-08T01:11:51.621Z,100.00
2023-05-08T01:15:12.888Z,100.00
2023-05-08T01:18:31.326Z,100.00
2023-05-08T01:21:50.753Z,100.00
2023-05-08T01:25:51.030Z,100.00
2023-05-08T01:29:50.596Z,100.00
2023-05-08T01:33:07.957Z,100.00
2023-05-08T01:36:28.289Z,100.00
2023-05-08T01:39:48.214Z,100.00
2023-05-08T01:43:17.807Z,100.00
2023-05-08T01:46:33.347Z,100.00
2023-05-08T01:49:50.735Z,100.00
2023-05-08T01:53:10.183Z,100.00
2023-05-08T01:56:27.297Z,100.00
2023-05-08T01:59:43.187Z,100.00
2023-05-08T02:02:58.442Z,100.00
2023-05-08T02:06:12.849Z,100.00
2023-05-08T02:09:27.502Z,100.00
2023-05-08T02:12:42.785Z,100.00
2023-05-08T02:15:57.893Z,100.00
2023-05-08T02:19:12.538Z,100.00
2023-05-08T02:22:26.015Z,100.00
2023-05-08T02:25:39.698Z,100.00
2023-05-08T02:28:54.700Z,100.00
2023-05-08T02:32:10.032Z,100.00
2023-05-08T02:35:24.539Z,100.00
2023-05-08T02:38:39.001Z,100.00
2023-05-08T02:41:52.033Z,100.00
2023-05-08T02:45:04.400Z,100.00
2023-05-08T02:48:23.033Z,100.00
2023-05-08T02:51:41.755Z,100.00
2023-05-08T02:55:03.176Z,100.00
2023-05-08T02:58:23.697Z,100.00
2023-05-08T03:01:42.751Z,100.00
2023-05-08T03:04:59.980Z,100.00
2023-05-08T03:08:18.323Z,100.00
2023-05-08T03:11:36.240Z,100.00
2023-05-08T03:14:54.968Z,100.00
2023-05-08T03:18:14.004Z,100.00
2023-05-08T03:21:29.075Z,100.00
2023-05-08T03:24:44.635Z,100.00
2023-05-08T03:27:59.109Z,100.00
2023-05-08T03:31:17.151Z,100.00
2023-05-08T03:34:31.526Z,100.00
2023-05-08T03:37:44.024Z,100.00
2023-05-08T03:40:56.993Z,100.00
2023-05-08T03:44:11.393Z,100.00
2023-05-08T03:47:26.367Z,100.00
2023-05-08T03:50:41.694Z,100.00
2023-05-08T03:53:55.350Z,100.00
2023-05-08T03:57:09.234Z,100.00
2023-05-08T04:00:28.926Z,100.00
2023-05-08T04:03:56.835Z,100.00
2023-05-08T04:07:15.215Z,100.00
2023-05-08T04:10:35.305Z,100.00
2023-05-08T04:13:54.368Z,100.00
2023-05-08T04:17:13.962Z,100.00
2023-05-08T04:20:31.007Z,100.00
2023-05-08T04:23:48.182Z,100.00
2023-05-08T04:27:01.012Z,100.00
2023-05-08T04:30:16.744Z,100.00
2023-05-08T04:33:29.635Z,100.00
2023-05-08T04:36:42.295Z,100.00
2023-05-08T04:39:58.500Z,100.00
2023-05-08T04:43:11.680Z,100.00
2023-05-08T04:46:24.892Z,100.00
2023-05-08T04:49:37.234Z,100.00
2023-05-08T04:52:49.882Z,100.00
2023-05-08T04:56:02.489Z,100.00
2023-05-08T04:59:16.070Z,100.00
2023-05-08T05:02:31.625Z,100.00
2023-05-08T05:05:45.258Z,100.00
2023-05-08T05:08:58.068Z,100.00
2023-05-08T05:12:11.277Z,100.00
2023-05-08T05:15:23.812Z,100.00
2023-05-08T05:18:36.048Z,100.00
2023-05-08T05:21:49.154Z,100.00
2023-05-08T05:25:01.320Z,100.00
2023-05-08T05:28:14.102Z,100.00
2023-05-08T05:31:26.251Z,100.00
2023-05-08T05:34:38.899Z,100.00
2023-05-08T05:37:51.301Z,100.00
2023-05-08T05:41:03.692Z,100.00
2023-05-08T05:44:16.050Z,100.00
2023-05-08T05:47:28.829Z,100.00
2023-05-08T05:50:41.925Z,100.00
2023-05-08T05:53:57.064Z,100.00
2023-05-08T05:57:09.353Z,100.00
2023-05-08T06:00:23.774Z,100.00
2023-05-08T06:03:37.950Z,100.00
2023-05-08T06:06:50.296Z,100.00
2023-05-08T06:10:02.596Z,100.00
2023-05-08T06:13:15.872Z,100.00
2023-05-08T06:16:28.438Z,100.00
2023-05-08T06:19:41.763Z,100.00
2023-05-08T06:22:54.032Z,100.00
2023-05-08T06:26:06.460Z,98.62
2023-05-08T06:29:18.876Z,98.29
2023-05-08T06:32:31.294Z,99.42
2023-05-08T06:35:43.514Z,96.91
2023-05-08T06:38:55.637Z,96.45
2023-05-08T06:42:08.675Z,96.66
2023-05-08T06:45:23.327Z,94.57
2023-05-08T06:48:35.489Z,92.07
2023-05-08T06:51:47.638Z,90.69
2023-05-08T06:54:59.838Z,89.87
2023-05-08T06:58:11.815Z,86.74
2023-05-08T07:01:24.377Z,83.82
2023-05-08T07:04:37.303Z,84.98
2023-05-08T07:07:49.789Z,83.26
2023-05-08T07:11:01.788Z,81.47
2023-05-08T07:14:13.838Z,79.87
2023-05-08T07:17:26.020Z,78.34
2023-05-08T07:20:38.527Z,77.12
2023-05-08T07:23:51.990Z,73.71
2023-05-08T07:27:04.189Z,72.18
2023-05-08T07:30:19.739Z,73.49
2023-05-08T07:33:31.913Z,72.57
2023-05-08T07:36:44.568Z,73.62
2023-05-08T07:39:57.000Z,74.43
2023-05-08T07:43:09.828Z,75.91
2023-05-08T07:46:26.330Z,78.34
2023-05-08T07:49:38.630Z,79.48
2023-05-08T07:52:51.124Z,82.19
2023-05-08T07:56:03.345Z,82.04
2023-05-08T07:59:15.529Z,83.20
2023-05-08T08:02:27.857Z,84.54
2023-05-08T08:05:42.393Z,85.75
2023-05-08T08:08:54.578Z,85.34
2023-05-08T08:12:06.812Z,86.52
2023-05-08T08:15:22.067Z,84.73
2023-05-08T08:18:34.281Z,84.78
2023-05-08T08:21:50.453Z,85.08
2023-05-08T08:25:04.094Z,85.01
2023-05-08T08:28:18.168Z,85.79
2023-05-08T08:31:30.570Z,84.38
2023-05-08T08:34:43.221Z,85.30
2023-05-08T08:37:55.528Z,83.60
2023-05-08T08:41:07.970Z,84.81
2023-05-08T08:44:22.199Z,81.97
2023-05-08T08:47:41.654Z,81.32
2023-05-08T08:50:57.663Z,82.35
2023-05-08T08:54:17.349Z,82.57
2023-05-08T08:57:33.312Z,81.34
2023-05-08T09:00:47.828Z,80.86
2023-05-08T09:04:01.015Z,81.32
2023-05-08T09:07:14.291Z,80.97
2023-05-08T09:10:27.094Z,80.89
2023-05-08T09:13:39.816Z,80.92
2023-05-08T09:16:53.072Z,79.73
2023-05-08T09:20:05.643Z,81.89
2023-05-08T09:23:19.960Z,80.17
2023-05-08T09:26:43.538Z,79.86
2023-05-08T09:30:11.075Z,81.52
2023-05-08T09:33:21.716Z,80.77
2023-05-08T09:36:34.982Z,81.88
2023-05-08T09:39:48.019Z,81.35
2023-05-08T09:43:00.286Z,81.94
2023-05-08T09:46:34.415Z,83.58
2023-05-08T09:49:47.096Z,80.97
2023-05-08T09:52:59.079Z,81.86
2023-05-08T09:56:13.455Z,81.89
2023-05-08T09:59:34.550Z,80.30
2023-05-08T10:02:50.698Z,82.08
2023-05-08T10:06:17.952Z,80.90
2023-05-08T10:09:42.599Z,79.43
2023-05-08T10:12:45.511Z,78.30
2023-05-08T10:16:00.941Z,78.43
2023-05-08T10:19:20.014Z,79.53
2023-05-08T10:22:34.398Z,80.62
2023-05-08T10:25:52.756Z,80.25
2023-05-08T10:29:09.526Z,82.01
2023-05-08T10:32:25.449Z,82.84
2023-05-08T10:35:37.772Z,82.43
2023-05-08T10:38:51.868Z,81.23
2023-05-08T10:42:04.689Z,79.31
2023-05-08T10:45:19.053Z,78.69
2023-05-08T10:48:36.976Z,78.38
2023-05-08T10:51:56.653Z,78.75
2023-05-08T10:55:26.549Z,78.66
2023-05-08T10:58:40.566Z,79.43
2023-05-08T11:01:55.769Z,77.93
2023-05-08T11:05:26.687Z,76.80
2023-05-08T11:08:49.759Z,74.53
2023-05-08T11:12:23.075Z,74.67
2023-05-08T11:15:46.732Z,74.61
2023-05-08T11:19:27.196Z,76.71
2023-05-08T11:22:40.480Z,76.74
2023-05-08T11:25:53.128Z,75.49
2023-05-08T11:29:06.013Z,77.35
2023-05-08T11:32:18.506Z,74.79
2023-05-08T11:35:52.504Z,75.10
2023-05-08T11:39:16.621Z,77.20
2023-05-08T11:42:45.058Z,75.82
2023-05-08T11:45:58.739Z,76.84
2023-05-08T11:49:11.546Z,76.77
2023-05-08T11:52:26.100Z,74.19
2023-05-08T11:55:38.638Z,74.59
2023-05-08T11:58:50.969Z,73.15
2023-05-08T12:02:09.283Z,73.04
2023-05-08T12:05:18.272Z,73.89
2023-05-08T12:08:31.564Z,72.29
2023-05-08T12:11:45.742Z,71.57
2023-05-08T12:14:59.418Z,74.03
2023-05-08T12:18:12.576Z,75.31
2023-05-08T12:21:25.890Z,75.62
2023-05-08T12:24:38.647Z,76.62
2023-05-08T12:27:51.458Z,73.74
2023-05-08T12:31:04.260Z,73.26
2023-05-08T12:34:16.834Z,74.21
2023-05-08T12:37:38.381Z,74.46
2023-05-08T12:40:53.338Z,73.46
2023-05-08T12:44:05.359Z,73.26
2023-05-08T12:47:18.216Z,71.45
2023-05-08T12:50:30.901Z,70.46
2023-05-08T12:53:44.110Z,71.47
2023-05-08T12:56:57.790Z,73.04
2023-05-08T13:00:15.128Z,71.98
2023-05-08T13:03:34.405Z,71.50
2023-05-08T13:06:47.170Z,71.12
2023-05-08T13:10:09.116Z,70.24
2023-05-08T13:13:24.875Z,69.85
2023-05-08T13:16:48.117Z,69.94
2023-05-08T13:20:00.596Z,72.58
2023-05-08T13:23:14.303Z,70.06
2023-05-08T13:26:27.444Z,70.89
2023-05-08T13:29:39.701Z,70.57
2023-05-08T13:32:52.134Z,71.65
2023-05-08T13:36:04.981Z,71.97
2023-05-08T13:39:17.270Z,70.36
2023-05-08T13:42:29.707Z,72.68
2023-05-08T13:45:41.877Z,73.23
2023-05-08T13:48:56.685Z,73.43
2023-05-08T13:52:09.391Z,74.47
2023-05-08T13:55:23.413Z,72.84
2023-05-08T13:58:36.274Z,70.35
2023-05-08T14:01:48.592Z,70.51
2023-05-08T14:05:01.038Z,68.74
2023-05-08T14:08:13.821Z,69.22
2023-05-08T14:11:27.510Z,68.95
2023-05-08T14:14:39.651Z,68.89
2023-05-08T14:17:51.778Z,70.44
2023-05-08T14:21:04.285Z,69.71
2023-05-08T14:24:16.641Z,71.27
2023-05-08T14:27:28.806Z,70.98
2023-05-08T14:30:41.093Z,70.14
2023-05-08T14:33:53.192Z,73.18
2023-05-08T14:37:05.218Z,72.43
2023-05-08T14:40:18.968Z,72.44
2023-05-08T14:43:31.358Z,69.52
2023-05-08T14:46:43.542Z,70.56
2023-05-08T14:49:56.790Z,71.40
2023-05-08T14:53:09.228Z,70.73
2023-05-08T14:56:24.063Z,71.31
2023-05-08T14:59:36.506Z,72.55
2023-05-08T15:02:49.275Z,71.45
2023-05-08T15:06:17.923Z,71.21
2023-05-08T15:09:30.342Z,73.55
2023-05-08T15:12:42.970Z,73.71
2023-05-08T15:15:55.332Z,74.17
2023-05-08T15:19:09.786Z,73.26
2023-05-08T15:22:22.598Z,71.87
2023-05-08T15:25:34.846Z,72.89
2023-05-08T15:28:47.337Z,70.61
2023-05-08T15:31:59.905Z,71.03
2023-05-08T15:35:15.041Z,71.40
2023-05-08T15:38:28.116Z,71.76
2023-05-08T15:41:41.628Z,70.49
2023-05-08T15:44:55.193Z,72.22
2023-05-08T15:48:07.879Z,72.24
2023-05-08T15:51:20.571Z,73.21
2023-05-08T15:54:33.292Z,73.88
2023-05-08T15:57:45.781Z,73.23
2023-05-08T16:00:58.712Z,73.99
2023-05-08T16:04:11.497Z,73.51
2023-05-08T16:07:24.266Z,73.00
2023-05-08T16:10:36.889Z,75.16
2023-05-08T16:13:49.710Z,72.94
2023-05-08T16:17:02.614Z,74.97
2023-05-08T16:20:18.587Z,76.09
2023-05-08T16:23:31.048Z,77.55
2023-05-08T16:26:44.386Z,77.36
2023-05-08T16:29:56.901Z,78.73
2023-05-08T16:33:10.046Z,78.45
2023-05-08T16:36:22.728Z,77.13
2023-05-08T16:39:36.012Z,77.67
2023-05-08T16:42:48.500Z,77.25
2023-05-08T16:46:01.032Z,76.27
2023-05-08T16:49:13.733Z,74.80
2023-05-08T16:52:26.323Z,73.08
2023-05-08T16:55:39.789Z,73.59
2023-05-08T16:58:53.004Z,72.04
2023-05-08T17:02:05.582Z,73.23
2023-05-08T17:05:19.343Z,73.70
2023-05-08T17:08:32.468Z,76.43
2023-05-08T17:11:47.199Z,76.40
2023-05-08T17:15:00.139Z,76.24
2023-05-08T17:18:14.108Z,76.13
2023-05-08T17:21:27.502Z,76.00
2023-05-08T17:24:44.484Z,76.12
2023-05-08T17:27:57.941Z,75.58
2023-05-08T17:31:10.316Z,75.54
2023-05-08T17:34:22.970Z,75.70
2023-05-08T17:37:35.545Z,78.84
2023-05-08T17:40:47.860Z,77.53
2023-05-08T17:44:00.367Z,77.40
2023-05-08T17:47:13.229Z,80.25
2023-05-08T17:50:26.433Z,82.67
2023-05-08T17:53:39.758Z,85.27
2023-05-08T17:56:52.356Z,87.12
2023-05-08T18:00:04.876Z,87.92
2023-05-08T18:03:19.330Z,86.30
2023-05-08T18:06:31.800Z,87.87
2023-05-08T18:09:44.354Z,91.34
2023-05-08T18:12:57.205Z,91.68
2023-05-08T18:16:10.099Z,88.37
2023-05-08T18:19:22.601Z,86.82
2023-05-08T18:22:35.479Z,84.74
2023-05-08T18:25:47.750Z,84.72
2023-05-08T18:28:59.958Z,83.61
2023-05-08T18:32:13.137Z,83.61
2023-05-08T18:35:25.814Z,83.27
2023-05-08T18:38:38.573Z,84.16
2023-05-08T18:41:51.453Z,84.03
2023-05-08T18:45:06.023Z,86.69
2023-05-08T18:48:19.064Z,87.58
2023-05-08T18:51:32.228Z,92.54
2023-05-08T18:54:44.940Z,93.48
2023-05-08T18:57:57.307Z,92.69
2023-05-08T19:01:10.647Z,96.39
2023-05-08T19:04:23.588Z,98.03
2023-05-08T19:07:36.058Z,97.46
2023-05-08T19:10:49.317Z,98.07
2023-05-08T19:14:01.825Z,98.98
2023-05-08T19:17:14.109Z,100.00
2023-05-08T19:20:26.999Z,99.16
2023-05-08T19:23:39.565Z,100.00
2023-05-08T19:26:52.389Z,99.00
2023-05-08T19:30:05.323Z,100.00
2023-05-08T19:33:19.751Z,100.00
2023-05-08T19:36:33.067Z,100.00
2023-05-08T19:39:46.258Z,100.00
2023-05-08T19:42:58.571Z,100.00
2023-05-08T19:46:11.275Z,100.00
2023-05-08T19:49:24.709Z,100.00
2023-05-08T19:52:37.313Z,100.00
2023-05-08T19:55:49.824Z,100.00
2023-05-08T19:59:02.932Z,100.00
2023-05-08T20:02:15.484Z,100.00
2023-05-08T20:05:28.529Z,100.00
2023-05-08T20:08:40.836Z,100.00
2023-05-08T20:11:55.308Z,100.00
2023-05-08T20:15:08.127Z,100.00
2023-05-08T20:18:20.813Z,100.00
2023-05-08T20:21:34.233Z,100.00
2023-05-08T20:24:46.532Z,100.00
2023-05-08T20:27:58.953Z,100.00
2023-05-08T20:31:11.268Z,100.00
2023-05-08T20:34:23.725Z,100.00
2023-05-08T20:37:36.462Z,100.00
2023-05-08T20:40:48.906Z,100.00
2023-05-08T20:44:01.222Z,100.00
2023-05-08T20:47:13.446Z,100.00
2023-05-08T20:50:26.426Z,100.00
2023-05-08T20:53:38.586Z,100.00
2023-05-08T20:56:50.845Z,100.00
2023-05-08T21:00:03.793Z,100.00
2023-05-08T21:03:16.100Z,100.00
2023-05-08T21:06:28.387Z,100.00
2023-05-08T21:09:40.805Z,100.00
2023-05-08T21:12:52.965Z,100.00
2023-05-08T21:16:06.045Z,100.00
2023-05-08T21:19:18.546Z,100.00
2023-05-08T21:22:31.135Z,100.00
2023-05-08T21:25:45.222Z,100.00
2023-05-08T21:28:58.964Z,100.00
2023-05-08T21:32:11.960Z,100.00
2023-05-08T21:35:24.600Z,100.00
2023-05-08T21:38:36.616Z,100.00
2023-05-08T21:41:50.522Z,100.00
2023-05-08T21:45:04.248Z,100.00
2023-05-08T21:48:16.455Z,100.00
2023-05-08T21:51:28.761Z,100.00
2023-05-08T21:54:41.422Z,100.00
2023-05-08T21:57:54.061Z,100.00
2023-05-08T22:01:06.439Z,100.00
2023-05-08T22:04:19.026Z,100.00
2023-05-08T22:07:31.475Z,100.00
2023-05-08T22:10:44.426Z,100.00
2023-05-08T22:13:56.860Z,100.00
2023-05-08T22:17:08.820Z,100.00
2023-05-08T22:20:21.743Z,100.00
2023-05-08T22:23:33.864Z,100.00
2023-05-08T22:26:46.261Z,100.00
2023-05-08T22:30:00.511Z,100.00
2023-05-08T22:33:12.709Z,100.00
2023-05-08T22:36:25.024Z,100.00
2023-05-08T22:39:37.136Z,100.00
2023-05-08T22:42:50.039Z,100.00
2023-05-08T22:46:03.276Z,100.00
2023-05-08T22:49:15.647Z,100.00
2023-05-08T22:52:28.104Z,100.00
2023-05-08T22:55:40.208Z,100.00
2023-05-08T22:58:54.451Z,100.00
2023-05-08T23:02:06.702Z,100.00
2023-05-08T23:05:19.282Z,100.00
2023-05-08T23:08:31.610Z,100.00
2023-05-08T23:11:43.801Z,100.00
2023-05-08T23:14:56.206Z,100.00
2023-05-08T23:18:08.885Z,100.00
2023-05-08T23:21:21.032Z,100.00
2023-05-08T23:24:33.850Z,100.00
2023-05-08T23:27:46.430Z,100.00
2023-05-08T23:30:59.009Z,100.00
2023-05-08T23:34:11.391Z,100.00
2023-05-08T23:37:23.496Z,100.00
2023-05-08T23:40:36.216Z,100.00
2023-05-08T23:43:48.635Z,100.00
2023-05-08T23:47:00.949Z,100.00
2023-05-08T23:50:16.236Z,100.00
2023-05-08T23:53:28.328Z,100.00
2023-05-08T23:56:41.205Z,100.00
2023-05-08T23:59:53.360Z,100.00
